createdAt,value
2022-09-05T00:00:17.867Z,21.14
2022-09-05T00:01:18.044Z,21.14
2022-09-05T00:02:19.264Z,21.11
2022-09-05T00:03:18.457Z,21.09
2022-09-05T00:04:25.401Z,21.12
2022-09-05T00:05:19.759Z,21.12
2022-09-05T00:06:18.907Z,21.12
2022-09-05T00:07:34.387Z,21.12
2022-09-05T00:08:20.271Z,21.12
2022-09-05T00:09:19.447Z,21.12
2022-09-05T00:10:20.788Z,21.14
2022-09-05T00:11:41.324Z,21.14
2022-09-05T00:12:20.991Z,21.15
2022-09-05T00:13:20.238Z,21.15
2022-09-05T00:14:34.259Z,21.14
2022-09-05T00:15:21.547Z,21.17
2022-09-05T00:16:20.734Z,21.18
2022-09-05T00:17:20.868Z,21.21
2022-09-05T00:24:17.764Z,21.20
2022-09-05T00:24:21.159Z,21.20
2022-09-05T00:24:22.208Z,21.20
2022-09-05T00:24:26.771Z,21.21
2022-09-05T00:24:26.945Z,21.20
2022-09-05T00:24:34.561Z,21.20
2022-09-05T00:24:42.438Z,21.22
2022-09-05T00:25:32.072Z,21.24
2022-09-05T00:26:23.419Z,21.25
2022-09-05T00:27:22.569Z,21.22
2022-09-05T00:28:26.797Z,21.25
2022-09-05T00:29:31.609Z,21.29
2022-09-05T00:31:07.767Z,21.29
2022-09-05T00:31:54.402Z,21.25
2022-09-05T00:32:24.497Z,21.22
2022-09-05T00:33:23.608Z,21.21
2022-09-05T00:34:23.780Z,21.21
2022-09-05T00:35:26.042Z,21.17
2022-09-05T00:36:24.129Z,21.17
2022-09-05T00:37:24.289Z,21.17
2022-09-05T00:38:25.944Z,21.15
2022-09-05T00:39:25.640Z,21.14
2022-09-05T00:40:24.811Z,21.14
2022-09-05T00:41:24.978Z,21.12
2022-09-05T00:42:25.141Z,21.09
2022-09-05T00:43:25.411Z,21.09
2022-09-05T00:44:25.465Z,21.09
2022-09-05T00:45:25.639Z,21.07
2022-09-05T00:46:25.865Z,21.07
2022-09-05T00:47:26.001Z,21.07
2022-09-05T00:48:26.163Z,21.07
2022-09-05T00:49:26.341Z,21.05
2022-09-05T00:50:26.551Z,21.07
2022-09-05T00:51:34.252Z,21.06
2022-09-05T00:52:27.908Z,21.03
2022-09-05T00:53:27.070Z,21.05
2022-09-05T00:54:34.240Z,21.06
2022-09-05T00:55:28.461Z,21.02
2022-09-05T00:56:27.643Z,21.05
2022-09-05T00:57:27.792Z,21.06
2022-09-05T00:58:27.991Z,21.07
2022-09-05T00:59:29.170Z,21.07
2022-09-05T01:00:28.380Z,21.09
2022-09-05T01:01:28.670Z,21.06
2022-09-05T01:02:28.930Z,21.03
2022-09-05T01:03:28.881Z,21.03
2022-09-05T01:04:29.091Z,21.03
2022-09-05T01:05:29.271Z,21.06
2022-09-05T01:06:29.431Z,21.03
2022-09-05T01:07:29.612Z,21.00
2022-09-05T01:08:29.801Z,20.95
2022-09-05T01:09:29.963Z,20.96
2022-09-05T01:10:30.172Z,20.96
2022-09-05T01:11:30.329Z,20.96
2022-09-05T01:12:30.521Z,20.95
2022-09-05T01:13:30.701Z,20.95
2022-09-05T01:14:30.919Z,20.93
2022-09-05T01:15:31.091Z,20.93
2022-09-05T01:16:31.271Z,20.95
2022-09-05T01:17:31.421Z,20.93
2022-09-05T01:18:31.622Z,20.92
2022-09-05T01:19:31.802Z,20.90
2022-09-05T01:20:33.519Z,20.87
2022-09-05T01:21:32.114Z,20.87
2022-09-05T01:22:32.320Z,20.85
2022-09-05T01:23:32.462Z,20.87
2022-09-05T01:24:32.673Z,20.88
2022-09-05T01:25:32.833Z,20.90
2022-09-05T01:26:32.992Z,20.87
2022-09-05T01:27:35.200Z,20.90
2022-09-05T01:29:16.984Z,20.87
2022-09-05T01:29:34.520Z,20.85
2022-09-05T01:30:33.664Z,20.88
2022-09-05T01:31:33.880Z,20.88
2022-09-05T01:32:34.013Z,20.87
2022-09-05T01:33:34.222Z,20.92
2022-09-05T01:34:34.355Z,20.92
2022-09-05T01:35:34.533Z,20.92
2022-09-05T01:36:34.693Z,20.90
2022-09-05T01:37:34.873Z,20.92
2022-09-05T01:38:35.043Z,20.90
2022-09-05T01:40:14.777Z,20.95
2022-09-05T01:40:36.454Z,20.95
2022-09-05T01:41:35.574Z,20.93
2022-09-05T01:42:35.765Z,20.95
2022-09-05T01:43:35.923Z,20.96
2022-09-05T01:44:36.084Z,20.97
2022-09-05T01:45:39.832Z,20.96
2022-09-05T01:46:36.495Z,20.96
2022-09-05T01:47:36.603Z,20.97
2022-09-05T01:48:37.765Z,20.96
2022-09-05T01:49:37.968Z,20.97
2022-09-05T01:50:37.147Z,20.97
2022-09-05T01:51:37.307Z,20.96
2022-09-05T01:52:37.472Z,20.93
2022-09-05T01:53:38.653Z,20.92
2022-09-05T01:54:37.844Z,20.87
2022-09-05T01:56:02.581Z,20.88
2022-09-05T01:56:39.172Z,20.90
2022-09-05T01:57:38.354Z,20.87
2022-09-05T01:58:38.544Z,20.88
2022-09-05T01:59:38.702Z,20.90
2022-09-05T02:00:38.912Z,20.90
2022-09-05T02:01:39.108Z,20.93
2022-09-05T02:02:39.490Z,20.95
2022-09-05T02:03:39.404Z,20.90
2022-09-05T02:04:39.595Z,20.88
2022-09-05T02:05:47.419Z,20.85
2022-09-05T02:06:43.216Z,20.84
2022-09-05T02:07:40.085Z,20.82
2022-09-05T02:08:41.729Z,20.82
2022-09-05T02:09:40.457Z,20.81
2022-09-05T02:10:40.663Z,20.78
2022-09-05T02:11:40.870Z,20.78
2022-09-05T02:12:41.019Z,20.80
2022-09-05T02:13:41.166Z,20.78
2022-09-05T02:14:41.326Z,20.78
2022-09-05T02:15:41.554Z,20.77
2022-09-05T02:16:41.655Z,20.75
2022-09-05T02:17:50.696Z,20.75
2022-09-05T02:18:42.996Z,20.77
2022-09-05T02:19:42.177Z,20.74
2022-09-05T02:20:42.393Z,20.69
2022-09-05T02:21:56.908Z,20.65
2022-09-05T02:22:43.706Z,20.62
2022-09-05T02:23:42.951Z,20.60
2022-09-05T02:24:43.091Z,20.58
2022-09-05T02:26:01.077Z,20.52
2022-09-05T02:26:44.406Z,20.50
2022-09-05T02:28:04.360Z,20.43
2022-09-05T02:28:44.777Z,20.39
2022-09-05T02:29:43.968Z,20.40
2022-09-05T02:30:57.623Z,20.37
2022-09-05T02:31:45.342Z,20.37
2022-09-05T02:32:44.456Z,20.36
2022-09-05T02:33:44.607Z,20.31
2022-09-05T02:34:44.806Z,20.26
2022-09-05T02:35:44.987Z,20.25
2022-09-05T02:36:45.149Z,20.19
2022-09-05T02:39:11.504Z,20.16
2022-09-05T02:42:12.824Z,20.13
2022-09-05T02:45:01.206Z,20.10
2022-09-05T02:45:07.132Z,20.00
2022-09-05T02:45:07.355Z,20.09
2022-09-05T02:45:09.338Z,19.99
2022-09-05T02:45:21.086Z,20.06
2022-09-05T02:45:21.088Z,19.94
2022-09-05T02:45:47.752Z,19.92
2022-09-05T02:46:46.940Z,19.88
2022-09-05T02:47:47.028Z,19.85
2022-09-05T02:48:47.197Z,19.77
2022-09-05T02:54:14.260Z,19.76
2022-09-05T02:55:46.411Z,19.74
2022-09-05T02:57:27.323Z,19.74
2022-09-05T02:57:40.248Z,19.67
2022-09-05T02:57:40.447Z,19.66
2022-09-05T02:57:40.795Z,19.74
2022-09-05T02:57:43.079Z,19.73
2022-09-05T02:57:47.029Z,19.71
2022-09-05T02:58:07.276Z,19.62
2022-09-05T02:59:09.252Z,19.56
2022-09-05T02:59:50.066Z,19.54
2022-09-05T03:00:49.624Z,19.54
2022-09-05T03:01:49.461Z,19.51
2022-09-05T03:02:49.616Z,19.47
2022-09-05T03:03:49.748Z,19.44
2022-09-05T03:04:49.918Z,19.44
2022-09-05T03:05:50.098Z,19.45
2022-09-05T03:06:50.259Z,19.45
2022-09-05T03:07:50.420Z,19.44
2022-09-05T03:08:50.579Z,19.44
2022-09-05T03:09:50.771Z,19.41
2022-09-05T03:10:54.426Z,19.37
2022-09-05T03:11:51.109Z,19.37
2022-09-05T03:12:51.307Z,19.33
2022-09-05T03:13:54.304Z,19.31
2022-09-05T03:14:51.668Z,19.30
2022-09-05T03:15:51.818Z,19.29
2022-09-05T03:16:52.070Z,19.26
2022-09-05T03:17:52.189Z,19.29
2022-09-05T03:18:52.355Z,19.26
2022-09-05T03:19:52.522Z,19.26
2022-09-05T03:20:52.688Z,19.24
2022-09-05T03:21:52.838Z,19.21
2022-09-05T03:22:53.000Z,19.18
2022-09-05T03:23:53.160Z,19.12
2022-09-05T03:24:55.815Z,19.08
2022-09-05T03:25:53.503Z,19.08
2022-09-05T03:26:53.690Z,19.09
2022-09-05T03:27:53.839Z,19.08
2022-09-05T03:28:54.039Z,19.07
2022-09-05T03:29:58.849Z,19.00
2022-09-05T03:30:54.486Z,18.99
2022-09-05T03:31:54.539Z,18.96
2022-09-05T03:32:54.699Z,18.96
2022-09-05T03:33:54.860Z,18.90
2022-09-05T03:34:55.049Z,18.90
2022-09-05T03:35:55.200Z,18.90
2022-09-05T03:36:55.410Z,18.86
2022-09-05T03:37:55.569Z,18.83
2022-09-05T03:38:55.729Z,18.83
2022-09-05T03:39:55.913Z,18.81
2022-09-05T03:40:56.057Z,18.78
2022-09-05T03:41:56.748Z,18.77
2022-09-05T03:42:56.372Z,18.75
2022-09-05T03:43:56.533Z,18.71
2022-09-05T03:44:56.710Z,18.70
2022-09-05T03:45:56.942Z,18.66
2022-09-05T03:46:57.053Z,18.63
2022-09-05T03:47:58.406Z,18.66
2022-09-05T03:49:07.153Z,18.66
2022-09-05T03:53:57.132Z,18.66
2022-09-05T03:57:08.180Z,18.60
2022-09-05T03:57:13.434Z,18.65
2022-09-05T03:57:16.234Z,18.58
2022-09-05T03:57:17.965Z,18.56
2022-09-05T03:57:17.973Z,18.59
2022-09-05T03:57:19.887Z,18.63
2022-09-05T03:57:24.261Z,18.60
2022-09-05T03:58:02.110Z,18.53
2022-09-05T03:59:00.580Z,18.52
2022-09-05T03:59:59.410Z,18.53
2022-09-05T04:01:17.546Z,18.53
2022-09-05T04:02:49.173Z,18.52
2022-09-05T04:08:09.910Z,18.55
2022-09-05T04:08:13.702Z,18.52
2022-09-05T04:08:16.280Z,18.50
2022-09-05T04:08:20.594Z,18.50
2022-09-05T04:08:27.804Z,18.47
2022-09-05T04:08:31.819Z,18.49
2022-09-05T04:09:02.030Z,18.45
2022-09-05T04:10:01.235Z,18.44
2022-09-05T04:11:01.383Z,18.45
2022-09-05T04:12:01.481Z,18.45
2022-09-05T04:13:01.678Z,18.44
2022-09-05T04:14:01.820Z,18.44
2022-09-05T04:15:02.035Z,18.44
2022-09-05T04:16:02.160Z,18.41
2022-09-05T04:17:02.390Z,18.41
2022-09-05T04:18:04.059Z,18.41
2022-09-05T04:19:02.681Z,18.41
2022-09-05T04:20:02.881Z,18.41
2022-09-05T04:21:03.052Z,18.41
2022-09-05T04:22:03.189Z,18.41
2022-09-05T04:23:03.371Z,18.38
2022-09-05T04:24:03.570Z,18.38
2022-09-05T04:25:03.752Z,18.38
2022-09-05T04:26:12.013Z,18.38
2022-09-05T04:27:05.101Z,18.40
2022-09-05T04:28:04.251Z,18.40
2022-09-05T04:29:04.441Z,18.44
2022-09-05T04:30:35.347Z,18.44
2022-09-05T04:31:05.812Z,18.44
2022-09-05T04:32:18.589Z,18.47
2022-09-05T04:33:06.185Z,18.47
2022-09-05T04:34:05.350Z,18.45
2022-09-05T04:35:05.531Z,18.45
2022-09-05T04:36:17.757Z,18.47
2022-09-05T04:37:06.881Z,18.50
2022-09-05T04:38:06.043Z,18.50
2022-09-05T04:39:06.241Z,18.50
2022-09-05T04:40:06.514Z,18.52
2022-09-05T04:41:06.581Z,18.55
2022-09-05T04:42:06.771Z,18.59
2022-09-05T04:43:06.932Z,18.62
2022-09-05T04:44:07.130Z,18.60
2022-09-05T04:45:07.302Z,18.62
2022-09-05T04:46:07.488Z,18.63
2022-09-05T04:47:07.632Z,18.63
2022-09-05T04:48:07.826Z,18.68
2022-09-05T04:49:07.995Z,18.73
2022-09-05T04:50:08.192Z,18.74
2022-09-05T04:51:08.357Z,18.78
2022-09-05T04:52:08.522Z,18.80
2022-09-05T04:53:08.684Z,18.84
2022-09-05T04:54:08.862Z,18.89
2022-09-05T04:55:09.054Z,18.93
2022-09-05T04:56:09.232Z,19.00
2022-09-05T04:57:13.723Z,19.04
2022-09-05T04:58:10.602Z,19.11
2022-09-05T05:01:04.511Z,19.15
2022-09-05T05:05:58.367Z,19.19
2022-09-05T05:06:00.542Z,19.30
2022-09-05T05:06:03.813Z,19.52
2022-09-05T05:06:04.333Z,19.40
2022-09-05T05:06:10.664Z,19.64
2022-09-05T05:06:16.665Z,19.77
2022-09-05T05:06:42.243Z,19.99
2022-09-05T05:07:12.303Z,20.21
2022-09-05T05:08:11.472Z,20.40
2022-09-05T05:09:11.557Z,20.58
2022-09-05T05:11:01.141Z,20.74
2022-09-05T05:17:43.001Z,20.85
2022-09-05T05:18:01.025Z,20.95
2022-09-05T05:18:02.286Z,20.90
2022-09-05T05:18:08.808Z,20.90
2022-09-05T05:18:10.549Z,20.97
2022-09-05T05:18:12.788Z,20.95
2022-09-05T05:18:13.566Z,20.96
2022-09-05T05:18:42.335Z,20.92
2022-09-05T05:19:18.521Z,20.87
2022-09-05T05:20:41.749Z,20.82
2022-09-05T05:21:14.626Z,20.82
2022-09-05T05:22:13.816Z,20.82
2022-09-05T05:23:13.993Z,20.82
2022-09-05T05:24:14.235Z,20.82
2022-09-05T05:25:14.414Z,20.84
2022-09-05T05:26:14.553Z,20.84
2022-09-05T05:27:14.684Z,20.82
2022-09-05T05:28:22.773Z,20.84
2022-09-05T05:29:19.466Z,20.80
2022-09-05T05:30:15.265Z,20.77
2022-09-05T05:31:15.451Z,20.78
2022-09-05T05:32:15.574Z,20.69
2022-09-05T05:33:16.724Z,20.62
2022-09-05T05:34:24.497Z,20.60
2022-09-05T05:35:17.089Z,20.56
2022-09-05T05:36:16.260Z,20.52
2022-09-05T05:37:16.454Z,20.48
2022-09-05T05:38:16.595Z,20.44
2022-09-05T05:39:16.792Z,20.43
2022-09-05T05:40:16.974Z,20.40
2022-09-05T05:41:17.122Z,20.36
2022-09-05T05:42:20.585Z,20.34
2022-09-05T05:43:17.475Z,20.31
2022-09-05T05:44:17.656Z,20.28
2022-09-05T05:45:17.852Z,20.29
2022-09-05T05:46:18.043Z,20.28
2022-09-05T05:47:18.163Z,20.28
2022-09-05T05:48:19.386Z,20.26
2022-09-05T05:49:18.484Z,20.28
2022-09-05T05:50:18.765Z,20.32
2022-09-05T05:51:18.836Z,20.34
2022-09-05T05:52:19.014Z,20.40
2022-09-05T05:53:40.959Z,20.47
2022-09-05T05:54:20.356Z,20.51
2022-09-05T05:55:50.585Z,20.59
2022-09-05T05:56:20.706Z,20.66
2022-09-05T05:57:19.886Z,20.72
2022-09-05T05:58:20.193Z,20.80
2022-09-05T05:59:24.663Z,20.84
2022-09-05T06:00:27.487Z,20.88
2022-09-05T06:01:27.423Z,20.93
2022-09-05T06:02:21.904Z,20.95
2022-09-05T06:03:25.514Z,20.99
2022-09-05T06:04:22.103Z,21.05
2022-09-05T06:05:21.266Z,21.09
2022-09-05T06:06:21.415Z,21.12
2022-09-05T06:07:21.596Z,21.17
2022-09-05T06:10:47.573Z,21.20
2022-09-05T06:13:00.897Z,21.24
2022-09-05T06:14:52.424Z,21.27
2022-09-05T06:14:56.051Z,21.37
2022-09-05T06:15:00.482Z,21.39
2022-09-05T06:15:06.397Z,21.33
2022-09-05T06:15:06.932Z,21.43
2022-09-05T06:15:24.960Z,21.46
2022-09-05T06:16:23.265Z,21.45
2022-09-05T06:17:28.156Z,21.46
2022-09-05T06:18:24.506Z,21.50
2022-09-05T06:19:23.686Z,21.50
2022-09-05T06:22:06.750Z,21.57
2022-09-05T06:22:11.747Z,21.58
2022-09-05T06:22:25.221Z,21.66
2022-09-05T06:23:38.519Z,21.70
2022-09-05T06:24:25.568Z,21.72
2022-09-05T06:25:24.758Z,21.70
2022-09-05T06:26:24.918Z,21.73
2022-09-05T06:27:25.070Z,21.75
2022-09-05T06:28:25.257Z,21.83
2022-09-05T06:29:25.436Z,21.92
2022-09-05T06:30:26.711Z,21.96
2022-09-05T06:31:30.412Z,22.00
2022-09-05T06:32:26.977Z,22.04
2022-09-05T06:33:26.327Z,22.11
2022-09-05T06:34:33.346Z,22.18
2022-09-05T06:35:27.539Z,22.23
2022-09-05T06:36:26.729Z,22.26
2022-09-05T06:37:27.035Z,22.26
2022-09-05T06:38:27.409Z,22.30
2022-09-05T06:39:27.287Z,22.39
2022-09-05T06:40:31.915Z,22.45
2022-09-05T06:41:27.578Z,22.50
2022-09-05T06:42:42.217Z,22.54
2022-09-05T06:43:28.956Z,22.55
2022-09-05T06:44:28.158Z,22.55
2022-09-05T06:45:29.000Z,22.55
2022-09-05T06:47:22.835Z,22.60
2022-09-05T06:47:34.191Z,22.66
2022-09-05T06:48:36.598Z,22.72
2022-09-05T06:49:37.155Z,22.84
2022-09-05T06:50:30.170Z,22.91
2022-09-05T06:51:30.309Z,23.05
2022-09-05T06:52:30.390Z,23.15
2022-09-05T06:53:29.670Z,23.23
2022-09-05T06:54:29.859Z,23.32
2022-09-05T06:55:30.039Z,23.39
2022-09-05T06:56:30.189Z,23.41
2022-09-05T06:57:30.399Z,23.36
2022-09-05T06:58:30.571Z,23.32
2022-09-05T06:59:30.700Z,23.32
2022-09-05T07:00:30.976Z,23.32
2022-09-05T07:01:59.847Z,23.39
2022-09-05T07:02:58.232Z,23.40
2022-09-05T07:03:32.597Z,23.44
2022-09-05T07:05:23.098Z,23.46
2022-09-05T07:05:39.728Z,23.50
2022-09-05T07:06:44.296Z,23.51
2022-09-05T07:07:33.126Z,23.51
2022-09-05T07:08:36.407Z,23.50
2022-09-05T07:09:32.451Z,23.51
2022-09-05T07:10:38.989Z,23.55
2022-09-05T07:11:33.801Z,23.51
2022-09-05T07:12:32.982Z,23.55
2022-09-05T07:13:33.162Z,23.51
2022-09-05T07:14:33.352Z,23.54
2022-09-05T07:15:33.521Z,23.58
2022-09-05T07:16:37.744Z,23.71
2022-09-05T07:17:48.349Z,23.87
2022-09-05T07:18:35.050Z,24.13
2022-09-05T07:19:34.212Z,24.36
2022-09-05T07:20:34.422Z,24.55
2022-09-05T07:21:35.575Z,24.68
2022-09-05T07:22:47.445Z,24.69
2022-09-05T07:24:06.636Z,24.66
2022-09-05T07:24:53.352Z,24.63
2022-09-05T07:25:37.386Z,24.54
2022-09-05T07:26:51.715Z,24.53
2022-09-05T07:27:41.853Z,24.40
2022-09-05T07:28:36.821Z,24.40
2022-09-05T07:29:36.042Z,24.38
2022-09-05T07:30:36.175Z,24.35
2022-09-05T07:31:37.520Z,24.32
2022-09-05T07:32:36.511Z,24.29
2022-09-05T07:33:36.714Z,24.26
2022-09-05T07:34:36.881Z,24.33
2022-09-05T07:35:41.715Z,24.39
2022-09-05T07:36:38.204Z,24.43
2022-09-05T07:37:37.424Z,24.50
2022-09-05T07:38:49.038Z,24.60
2022-09-05T07:39:38.781Z,24.68
2022-09-05T07:40:37.931Z,24.74
2022-09-05T07:41:38.066Z,24.85
2022-09-05T07:42:38.254Z,24.89
2022-09-05T07:43:38.424Z,24.98
2022-09-05T07:44:38.604Z,25.04
2022-09-05T07:45:44.203Z,25.08
2022-09-05T07:46:39.929Z,25.13
2022-09-05T07:47:39.103Z,25.16
2022-09-05T07:48:39.276Z,25.31
2022-09-05T07:49:43.565Z,25.58
2022-09-05T07:56:47.952Z,25.87
2022-09-05T07:56:55.975Z,26.55
2022-09-05T07:56:56.435Z,26.18
2022-09-05T07:56:59.520Z,26.99
2022-09-05T07:57:01.481Z,27.48
2022-09-05T07:57:05.168Z,27.30
2022-09-05T07:57:10.215Z,27.51
2022-09-05T07:57:50.721Z,27.47
2022-09-05T07:58:42.019Z,27.47
2022-09-05T07:59:41.207Z,27.49
2022-09-05T08:00:41.372Z,27.45
2022-09-05T08:01:41.528Z,27.45
2022-09-05T08:02:45.449Z,27.45
2022-09-05T08:03:41.871Z,27.27
2022-09-05T08:04:42.157Z,27.10
2022-09-05T08:05:42.229Z,26.92
2022-09-05T08:07:47.961Z,26.97
2022-09-05T08:07:48.972Z,26.83
2022-09-05T08:08:52.118Z,27.47
2022-09-05T08:10:07.088Z,28.07
2022-09-05T08:11:23.185Z,28.66
2022-09-05T08:11:44.279Z,28.97
2022-09-05T08:13:22.546Z,29.13
2022-09-05T08:13:46.450Z,29.39
2022-09-05T08:14:45.840Z,29.79
2022-09-05T08:16:13.087Z,30.37
2022-09-05T08:16:45.294Z,30.81
2022-09-05T08:17:44.353Z,31.22
2022-09-05T08:18:44.547Z,31.69
2022-09-05T08:19:45.227Z,32.14
2022-09-05T08:20:44.892Z,32.45
2022-09-05T08:21:45.063Z,32.77
2022-09-05T08:22:52.348Z,32.90
2022-09-05T08:23:46.441Z,33.09
2022-09-05T08:24:45.600Z,33.11
2022-09-05T08:25:57.199Z,33.31
2022-09-05T08:26:47.563Z,33.65
2022-09-05T08:27:46.112Z,34.11
2022-09-05T08:28:46.303Z,34.40
2022-09-05T08:29:46.511Z,34.67
2022-09-05T08:30:46.652Z,34.97
2022-09-05T08:31:46.864Z,35.30
2022-09-05T08:32:47.034Z,35.53
2022-09-05T08:33:47.221Z,35.70
2022-09-05T08:34:47.374Z,36.01
2022-09-05T08:35:47.544Z,36.20
2022-09-05T08:36:47.765Z,36.46
2022-09-05T08:37:47.905Z,36.68
2022-09-05T08:38:48.114Z,36.84
2022-09-05T08:39:48.289Z,37.06
2022-09-05T08:40:48.446Z,37.28
2022-09-05T08:41:51.083Z,37.39
2022-09-05T08:42:58.755Z,37.47
2022-09-05T08:46:35.505Z,37.51
2022-09-05T08:46:46.842Z,37.36
2022-09-05T08:46:46.978Z,37.37
2022-09-05T08:46:50.895Z,37.11
2022-09-05T08:47:49.670Z,37.15
2022-09-05T08:48:49.817Z,37.18
2022-09-05T08:49:49.958Z,36.96
2022-09-05T08:50:50.158Z,36.55
2022-09-05T08:51:54.214Z,36.52
2022-09-05T08:52:51.529Z,36.46
2022-09-05T08:53:50.881Z,36.47
2022-09-05T08:54:54.838Z,36.72
2022-09-05T08:55:52.039Z,36.93
2022-09-05T08:56:51.229Z,37.14
2022-09-05T08:57:51.411Z,37.35
2022-09-05T08:59:27.168Z,37.36
2022-09-05T09:00:18.458Z,37.40
2022-09-05T09:00:55.173Z,37.48
2022-09-05T09:02:45.172Z,37.74
2022-09-05T09:02:53.284Z,38.06
2022-09-05T09:03:52.562Z,38.38
2022-09-05T09:05:01.694Z,38.74
2022-09-05T09:06:13.710Z,39.11
2022-09-05T09:07:29.144Z,39.04
2022-09-05T09:07:54.102Z,39.02
2022-09-05T09:08:53.284Z,38.80
2022-09-05T09:09:53.463Z,38.91
2022-09-05T09:10:53.602Z,39.04
2022-09-05T09:11:53.791Z,39.15
2022-09-05T09:12:53.964Z,39.14
2022-09-05T09:13:54.155Z,39.33
2022-09-05T09:14:54.334Z,39.25
2022-09-05T09:15:54.557Z,39.48
2022-09-05T09:16:54.674Z,39.72
2022-09-05T09:17:54.867Z,39.97
2022-09-05T09:18:55.065Z,40.15
2022-09-05T09:19:55.243Z,40.27
2022-09-05T09:20:55.417Z,40.16
2022-09-05T09:21:56.556Z,40.27
2022-09-05T09:22:55.787Z,40.53
2022-09-05T09:23:55.998Z,40.80
2022-09-05T09:25:11.282Z,40.95
2022-09-05T09:25:57.314Z,41.00
2022-09-05T09:26:56.497Z,40.91
2022-09-05T09:28:48.073Z,40.69
2022-09-05T09:28:57.868Z,40.58
2022-09-05T09:29:57.061Z,40.75
2022-09-05T09:30:57.619Z,40.91
2022-09-05T09:31:57.456Z,40.88
2022-09-05T09:32:59.499Z,40.75
2022-09-05T09:33:57.759Z,40.51
2022-09-05T09:34:57.929Z,40.24
2022-09-05T09:35:58.115Z,39.96
2022-09-05T09:36:59.289Z,39.65
2022-09-05T09:37:59.665Z,39.59
2022-09-05T09:38:58.653Z,39.41
2022-09-05T09:39:59.884Z,39.12
2022-09-05T09:41:02.412Z,38.92
2022-09-05T09:41:59.181Z,38.69
2022-09-05T09:42:59.371Z,38.38
2022-09-05T09:43:59.550Z,38.36
2022-09-05T09:44:59.731Z,38.36
2022-09-05T09:46:00.910Z,38.40
2022-09-05T09:47:00.135Z,38.71
2022-09-05T09:48:00.273Z,38.92
2022-09-05T09:49:00.443Z,38.77
2022-09-05T09:50:00.633Z,38.55
2022-09-05T09:51:00.956Z,38.40
2022-09-05T09:52:00.993Z,38.31
2022-09-05T09:53:01.195Z,38.17
2022-09-05T09:54:01.336Z,37.86
2022-09-05T09:55:01.511Z,37.82
2022-09-05T09:56:06.725Z,37.74
2022-09-05T09:57:02.874Z,37.60
2022-09-05T09:58:02.118Z,37.17
2022-09-05T09:59:02.226Z,36.49
2022-09-05T10:00:02.416Z,35.79
2022-09-05T10:01:02.596Z,35.27
2022-09-05T10:02:24.009Z,34.85
2022-09-05T10:08:34.578Z,34.48
2022-09-05T10:10:38.031Z,33.08
2022-09-05T10:10:39.362Z,33.94
2022-09-05T10:10:39.581Z,33.43
2022-09-05T10:10:43.852Z,32.23
2022-09-05T10:10:48.843Z,32.80
2022-09-05T10:10:53.744Z,32.51
2022-09-05T10:11:07.741Z,31.89
2022-09-05T10:11:41.338Z,31.49
2022-09-05T10:12:05.792Z,31.15
2022-09-05T10:13:08.289Z,30.80
2022-09-05T10:14:04.933Z,30.47
2022-09-05T10:15:04.983Z,30.16
2022-09-05T10:16:07.490Z,29.98
2022-09-05T10:17:05.326Z,29.86
2022-09-05T10:18:05.531Z,29.73
2022-09-05T10:19:05.710Z,29.71
2022-09-05T10:20:09.863Z,29.65
2022-09-05T10:21:16.106Z,29.59
2022-09-05T10:23:07.420Z,29.39
2022-09-05T10:24:06.588Z,29.26
2022-09-05T10:25:16.492Z,29.12
2022-09-05T10:26:08.265Z,29.07
2022-09-05T10:27:07.071Z,28.97
2022-09-05T10:28:07.814Z,28.91
2022-09-05T10:29:31.655Z,28.89
2022-09-05T10:30:08.612Z,28.79
2022-09-05T10:32:01.005Z,28.67
2022-09-05T10:35:02.743Z,28.59
2022-09-05T10:35:10.839Z,28.54
2022-09-05T10:35:15.399Z,28.57
2022-09-05T10:35:20.946Z,28.49
2022-09-05T10:36:12.025Z,28.48
2022-09-05T10:37:09.883Z,28.44
2022-09-05T10:38:10.795Z,28.39
2022-09-05T10:39:13.568Z,28.38
2022-09-05T10:40:09.463Z,28.39
2022-09-05T10:41:21.428Z,28.37
2022-09-05T10:42:10.761Z,28.35
2022-09-05T10:43:09.924Z,28.25
2022-09-05T10:44:10.074Z,28.19
2022-09-05T10:45:10.246Z,28.11
2022-09-05T10:46:10.488Z,28.11
2022-09-05T10:47:10.638Z,28.07
2022-09-05T10:48:13.780Z,28.04
2022-09-05T10:49:10.914Z,28.04
2022-09-05T10:50:11.095Z,28.01
2022-09-05T10:51:11.277Z,27.96
2022-09-05T10:52:18.544Z,27.90
2022-09-05T10:53:12.655Z,27.87
2022-09-05T10:54:11.807Z,27.86
2022-09-05T10:55:15.244Z,27.80
2022-09-05T10:56:12.176Z,27.74
2022-09-05T10:57:12.356Z,27.74
2022-09-05T10:58:12.556Z,27.68
2022-09-05T11:01:31.030Z,27.68
2022-09-05T11:02:19.304Z,27.67
2022-09-05T11:02:24.966Z,27.65
2022-09-05T11:02:25.903Z,27.63
2022-09-05T11:03:22.554Z,27.64
2022-09-05T11:04:14.741Z,27.67
2022-09-05T11:05:13.811Z,27.64
2022-09-05T11:06:13.948Z,27.58
2022-09-05T11:07:14.138Z,27.51
2022-09-05T11:08:14.338Z,27.51
2022-09-05T11:09:16.574Z,27.59
2022-09-05T11:10:14.649Z,27.64
2022-09-05T11:11:17.289Z,27.71
2022-09-05T11:12:16.019Z,27.75
2022-09-05T11:13:15.219Z,27.80
2022-09-05T11:14:26.547Z,27.90
2022-09-05T11:15:16.519Z,27.98
2022-09-05T11:16:15.771Z,28.05
2022-09-05T11:17:15.891Z,28.10
2022-09-05T11:18:16.090Z,28.11
2022-09-05T11:19:16.231Z,28.14
2022-09-05T11:20:22.501Z,28.19
2022-09-05T11:21:17.600Z,28.22
2022-09-05T11:22:22.806Z,28.20
2022-09-05T11:23:17.991Z,28.17
2022-09-05T11:24:17.143Z,28.15
2022-09-05T11:25:18.248Z,28.12
2022-09-05T11:26:18.511Z,28.17
2022-09-05T11:27:25.333Z,28.23
2022-09-05T11:28:18.898Z,28.29
2022-09-05T11:29:18.023Z,28.29
2022-09-05T11:30:27.342Z,28.26
2022-09-05T11:31:19.399Z,28.22
2022-09-05T11:36:10.215Z,28.19
2022-09-05T11:38:02.811Z,28.17
2022-09-05T11:39:47.267Z,28.12
2022-09-05T11:39:56.265Z,28.14
2022-09-05T11:39:57.303Z,28.11
2022-09-05T11:40:02.932Z,28.12
2022-09-05T11:40:05.205Z,28.11
2022-09-05T11:40:09.882Z,28.12
2022-09-05T11:40:31.265Z,28.10
2022-09-05T11:41:21.596Z,28.19
2022-09-05T11:42:20.264Z,28.14
2022-09-05T11:43:20.413Z,28.19
2022-09-05T11:44:26.093Z,28.20
2022-09-05T11:45:21.773Z,28.23
2022-09-05T11:46:21.032Z,28.27
2022-09-05T11:47:29.631Z,28.30
2022-09-05T11:48:22.426Z,28.33
2022-09-05T11:49:21.505Z,28.32
2022-09-05T11:50:21.715Z,28.32
2022-09-05T11:51:33.604Z,28.33
2022-09-05T11:52:23.073Z,28.33
2022-09-05T11:53:22.225Z,28.38
2022-09-05T11:54:22.410Z,28.42
2022-09-05T11:55:22.585Z,28.47
2022-09-05T11:56:25.499Z,28.48
2022-09-05T11:57:33.318Z,28.54
2022-09-05T11:58:44.846Z,28.57
2022-09-05T11:59:33.455Z,28.54
2022-09-05T12:00:33.604Z,28.54
2022-09-05T12:01:41.743Z,28.59
2022-09-05T12:02:24.941Z,28.63
2022-09-05T12:03:57.586Z,28.63
2022-09-05T12:04:25.187Z,28.66
2022-09-05T12:05:48.292Z,28.60
2022-09-05T12:06:25.809Z,28.54
2022-09-05T12:07:31.945Z,28.49
2022-09-05T12:08:26.238Z,28.44
2022-09-05T12:09:25.091Z,28.39
2022-09-05T12:10:46.190Z,28.41
2022-09-05T12:11:26.369Z,28.41
2022-09-05T12:12:38.841Z,28.41
2022-09-05T12:13:29.331Z,28.41
2022-09-05T12:14:25.997Z,28.39
2022-09-05T12:15:26.080Z,28.44
2022-09-05T12:16:26.818Z,28.48
2022-09-05T12:17:35.112Z,28.51
2022-09-05T12:18:27.676Z,28.54
2022-09-05T12:19:26.750Z,28.52
2022-09-05T12:20:26.930Z,28.56
2022-09-05T12:21:27.110Z,28.56
2022-09-05T12:22:27.310Z,28.60
2022-09-05T12:24:07.791Z,28.60
2022-09-05T12:25:26.254Z,28.66
2022-09-05T12:27:39.109Z,28.70
2022-09-05T12:27:40.300Z,28.82
2022-09-05T12:27:44.804Z,28.76
2022-09-05T12:29:26.251Z,28.85
2022-09-05T12:29:36.571Z,28.94
2022-09-05T12:30:41.155Z,29.01
2022-09-05T12:33:09.734Z,28.98
2022-09-05T12:34:31.888Z,29.05
2022-09-05T12:36:04.117Z,29.12
2022-09-05T12:36:08.151Z,29.20
2022-09-05T12:36:11.064Z,29.23
2022-09-05T12:39:40.254Z,29.26
2022-09-05T12:40:54.865Z,29.20
2022-09-05T12:41:32.566Z,29.02
2022-09-05T12:41:33.149Z,29.14
2022-09-05T12:41:33.998Z,29.01
2022-09-05T12:41:43.087Z,28.89
2022-09-05T12:42:40.168Z,28.88
2022-09-05T12:44:20.934Z,28.85
2022-09-05T12:44:45.158Z,28.82
2022-09-05T12:45:37.334Z,28.81
2022-09-05T12:46:32.473Z,28.78
2022-09-05T12:47:31.634Z,28.78
2022-09-05T12:48:38.497Z,28.74
2022-09-05T12:49:35.252Z,28.72
2022-09-05T12:50:32.145Z,28.63
2022-09-05T12:51:45.183Z,28.57
2022-09-05T12:52:33.513Z,28.59
2022-09-05T12:53:32.656Z,28.57
2022-09-05T12:54:34.773Z,28.57
2022-09-05T12:55:33.016Z,28.60